Time;durP1;ratioP1;P1;durP2;ratioP2;P2;SDS_P1;SDS_P2;PMS_P1;PMS_P2;Temp;Humidity;BMP_temperature;BMP_pressure;BME280_temperature;BME280_humidity;BME280_pressure;Samples;Min_cycle;Max_cycle;Signal;HPM_P1;HPM_P2
2023/12/17 00:00:59;;;;;;;1.20;1.20;;;;;;;-2.77;100.00;100895.41;5035586;28;20037;-79
2023/12/17 00:03:26;;;;;;;1.10;1.10;;;;;;;-2.72;100.00;100891.63;5037151;28;20445;-79
2023/12/17 00:05:52;;;;;;;1.20;1.20;;;;;;;-2.87;100.00;100902.16;5038195;28;20041;-78
2023/12/17 00:08:19;;;;;;;1.20;1.20;;;;;;;-3.01;100.00;100891.78;5037317;28;20099;-78
2023/12/17 00:10:46;;;;;;;1.10;1.10;;;;;;;-2.85;100.00;100902.34;5033248;28;20144;-78
2023/12/17 00:13:11;;;;;;;1.13;1.13;;;;;;;-2.91;100.00;100897.34;5036850;28;20064;-78
2023/12/17 00:15:37;;;;;;;1.10;1.10;;;;;;;-2.58;100.00;100894.16;5035529;28;20623;-78
2023/12/17 00:18:02;;;;;;;1.10;1.10;;;;;;;-2.45;100.00;100901.69;5035205;28;20041;-79
2023/12/17 00:20:27;;;;;;;1.10;1.10;;;;;;;-2.29;100.00;100897.47;5037878;28;20059;-79
2023/12/17 00:22:53;;;;;;;1.10;1.10;;;;;;;-1.88;100.00;100891.66;5033945;28;20048;-78
2023/12/17 00:25:18;;;;;;;1.05;1.05;;;;;;;-1.72;100.00;100885.56;5034926;28;20122;-78
2023/12/17 00:27:44;;;;;;;1.10;1.10;;;;;;;-1.86;100.00;100892.78;5034151;28;20844;-79
2023/12/17 00:30:10;;;;;;;1.10;1.10;;;;;;;-2.00;100.00;100892.94;5033466;28;20121;-78
2023/12/17 00:32:35;;;;;;;1.10;1.10;;;;;;;-2.18;100.00;100891.78;5038843;28;20580;-78
2023/12/17 00:35:00;;;;;;;1.10;1.10;;;;;;;-2.31;100.00;100896.34;5034747;28;20391;-78
2023/12/17 00:37:26;;;;;;;1.10;1.10;;;;;;;-2.34;100.00;100898.63;5033558;28;20140;-79
2023/12/17 00:39:51;;;;;;;1.10;1.10;;;;;;;-2.47;100.00;100905.81;5034248;28;20772;-79
2023/12/17 00:42:17;;;;;;;1.10;1.10;;;;;;;-2.47;100.00;100904.13;5034683;28;20427;-79
2023/12/17 00:44:43;;;;;;;1.10;1.10;;;;;;;-2.62;100.00;100902.38;5033833;28;20045;-79
2023/12/17 00:47:09;;;;;;;1.20;1.20;;;;;;;-2.53;100.00;100910.34;5031342;28;20469;-79
2023/12/17 00:49:34;;;;;;;1.10;1.10;;;;;;;-2.31;100.00;100896.34;5037587;28;20483;-78
2023/12/17 00:52:00;;;;;;;1.10;1.10;;;;;;;-2.41;100.00;100897.00;5037017;28;20401;-79
2023/12/17 00:54:25;;;;;;;1.10;1.10;;;;;;;-2.47;100.00;100898.91;5036631;28;20037;-78
2023/12/17 00:56:50;;;;;;;1.10;1.10;;;;;;;-2.64;100.00;100904.78;5042579;28;20056;-79
2023/12/17 00:59:16;;;;;;;1.10;1.10;;;;;;;-2.56;100.00;100896.94;5032602;28;20462;-79
2023/12/17 01:01:41;;;;;;;1.10;1.10;;;;;;;-2.59;100.00;100905.31;5032909;28;20388;-79
2023/12/17 01:04:07;;;;;;;1.10;1.10;;;;;;;-2.75;100.00;100901.72;5032220;28;20073;-79
2023/12/17 01:06:32;;;;;;;1.10;1.10;;;;;;;-2.70;100.00;100900.56;5029671;28;20068;-78
2023/12/17 01:08:57;;;;;;;1.10;1.10;;;;;;;-2.73;100.00;100901.16;5034384;28;20044;-78
2023/12/17 01:11:26;;;;;;;1.10;1.10;;;;;;;-2.73;100.00;100910.66;5030067;28;20183;-78
2023/12/17 01:13:54;;;;;;;1.10;1.10;;;;;;;-2.88;100.00;100915.03;5031975;28;20606;-78
2023/12/17 01:16:20;;;;;;;1.20;1.20;;;;;;;-3.03;100.00;100914.16;5030665;28;20717;-78
2023/12/17 01:18:45;;;;;;;1.20;1.20;;;;;;;-2.85;100.00;100916.31;5032775;28;20033;-78
2023/12/17 01:21:10;;;;;;;1.15;1.15;;;;;;;-3.07;100.00;100911.94;5029634;28;20041;-79
2023/12/17 01:23:37;;;;;;;1.10;1.10;;;;;;;-2.78;100.00;100915.34;5038791;28;20021;-79
2023/12/17 01:26:03;;;;;;;1.10;1.10;;;;;;;-2.63;100.00;100913.59;5039233;28;20482;-80
2023/12/17 01:28:28;;;;;;;1.10;1.10;;;;;;;-2.87;100.00;100923.06;5035708;28;20116;-78
2023/12/17 01:30:54;;;;;;;1.10;1.10;;;;;;;-2.76;100.00;100921.69;5038102;28;20033;-78
2023/12/17 01:33:19;;;;;;;1.20;1.20;;;;;;;-2.87;100.00;100925.66;5031623;28;20042;-78
2023/12/17 01:35:45;;;;;;;1.10;1.10;;;;;;;-2.94;100.00;100919.53;5031613;28;20045;-78
2023/12/17 01:38:10;;;;;;;1.17;1.17;;;;;;;-2.74;100.00;100914.00;5033906;28;20060;-78
2023/12/17 01:40:35;;;;;;;1.10;1.10;;;;;;;-2.59;100.00;100903.69;5035788;28;20059;-78
2023/12/17 01:43:03;;;;;;;1.20;1.20;;;;;;;-2.85;100.00;100921.53;5036404;28;20040;-78
2023/12/17 01:45:29;;;;;;;1.10;1.10;;;;;;;-3.03;100.00;100914.16;5033122;28;20519;-78
2023/12/17 01:47:55;;;;;;;1.10;1.10;;;;;;;-3.00;100.00;100916.22;5031174;28;20045;-78
2023/12/17 01:50:20;;;;;;;1.13;1.13;;;;;;;-2.92;100.00;100912.84;5048030;28;20434;-78
2023/12/17 01:52:46;;;;;;;1.20;1.20;;;;;;;-3.08;100.00;100904.88;5032921;28;20056;-78
2023/12/17 01:55:13;;;;;;;1.10;1.10;;;;;;;-2.87;100.00;100907.38;5031839;28;20048;-78
2023/12/17 01:57:39;;;;;;;1.20;1.20;;;;;;;-3.10;100.00;100911.59;5034491;28;20041;-78
2023/12/17 02:00:05;;;;;;;1.10;1.10;;;;;;;-3.14;100.00;100912.00;5030538;28;20278;-78
2023/12/17 02:02:32;;;;;;;1.10;1.10;;;;;;;-2.81;100.00;100916.69;5032246;28;20415;-78
2023/12/17 02:04:57;;;;;;;1.10;1.10;;;;;;;-2.77;100.00;100930.28;5034919;28;20045;-78
2023/12/17 02:07:22;;;;;;;1.10;1.10;;;;;;;-3.03;100.00;100916.78;5033141;28;20044;-78
2023/12/17 02:09:48;;;;;;;1.10;1.10;;;;;;;-3.14;100.00;100910.31;5032597;28;20700;-78
2023/12/17 02:12:27;;;;;;;1.10;1.10;;;;;;;-3.08;100.00;100909.16;5033086;28;20041;-78
2023/12/17 02:14:53;;;;;;;1.10;1.10;;;;;;;-3.01;100.00;100904.84;5031318;28;20550;-78
2023/12/17 02:17:30;;;;;;;1.17;1.17;;;;;;;-3.27;100.00;100909.59;5025866;28;20033;-78
2023/12/17 02:19:56;;;;;;;1.20;1.20;;;;;;;-3.19;100.00;100906.22;5030908;28;20274;-78
2023/12/17 02:22:22;;;;;;;1.10;1.10;;;;;;;-3.01;100.00;100909.16;5033644;28;20407;-78
2023/12/17 02:24:49;;;;;;;1.20;1.20;;;;;;;-3.15;100.00;100910.13;5030383;28;20040;-78
2023/12/17 02:27:23;;;;;;;1.20;1.20;;;;;;;-3.22;100.00;100916.31;5029850;28;20033;-78
2023/12/17 02:29:49;;;;;;;1.20;1.20;;;;;;;-3.31;100.00;100914.28;5033654;28;20033;-78
2023/12/17 02:32:16;;;;;;;1.20;1.20;;;;;;;-3.25;100.00;100922.88;5030753;28;20033;-78
2023/12/17 02:34:42;;;;;;;1.20;1.20;;;;;;;-3.06;100.00;100919.06;5036915;28;20441;-78
2023/12/17 02:37:07;;;;;;;1.10;1.10;;;;;;;-2.73;100.00;100908.03;5033574;28;20040;-78
2023/12/17 02:39:33;;;;;;;1.10;1.10;;;;;;;-2.90;99.65;100898.25;5032127;28;20041;-77
2023/12/17 02:41:58;;;;;;;1.20;1.20;;;;;;;-2.78;100.00;100881.38;5035020;28;20044;-77
2023/12/17 02:44:24;;;;;;;1.10;1.10;;;;;;;-3.06;100.00;100892.03;5029742;28;20041;-77
2023/12/17 02:46:50;;;;;;;1.20;1.20;;;;;;;-3.06;100.00;100895.56;5038530;28;20076;-78
2023/12/17 02:49:16;;;;;;;1.20;1.20;;;;;;;-2.96;100.00;100901.09;5029385;28;20126;-78
2023/12/17 02:51:41;;;;;;;1.10;1.10;;;;;;;-3.03;99.73;100908.03;5033124;28;20060;-78
2023/12/17 02:54:07;;;;;;;1.20;1.20;;;;;;;-3.02;99.95;100909.88;5033595;28;20044;-78
2023/12/17 02:56:38;;;;;;;1.20;1.20;;;;;;;-3.00;99.90;100909.31;5030803;28;20045;-78
2023/12/17 02:59:05;;;;;;;1.15;1.15;;;;;;;-3.31;98.53;100904.78;5029354;28;20091;-78
2023/12/17 03:01:30;;;;;;;1.25;1.25;;;;;;;-3.25;98.40;100899.38;5026060;28;20040;-78
2023/12/17 03:03:56;;;;;;;1.10;1.10;;;;;;;-2.95;99.10;100894.19;5031598;28;20041;-78
2023/12/17 03:06:21;;;;;;;1.15;1.15;;;;;;;-2.97;98.61;100899.25;5033589;28;20040;-78
2023/12/17 03:08:46;;;;;;;1.10;1.10;;;;;;;-3.04;99.04;100899.25;5040162;28;20037;-78
2023/12/17 03:11:12;;;;;;;1.10;1.10;;;;;;;-3.03;99.02;100894.97;5043985;28;20078;-77
2023/12/17 03:13:38;;;;;;;1.10;1.10;;;;;;;-3.08;99.13;100888.28;5038274;28;20040;-78
2023/12/17 03:16:06;;;;;;;1.10;1.10;;;;;;;-3.29;98.73;100886.72;5034547;28;20591;-77
2023/12/17 03:18:32;;;;;;;1.00;1.00;;;;;;;-3.11;98.94;100881.03;5038090;28;20045;-78
2023/12/17 03:20:57;;;;;;;1.08;1.08;;;;;;;-3.07;98.93;100871.84;5037281;28;20032;-78
2023/12/17 03:23:23;;;;;;;1.10;1.10;;;;;;;-3.20;98.34;100867.84;5036949;28;20076;-77
2023/12/17 03:25:49;;;;;;;1.20;1.20;;;;;;;-3.22;98.53;100871.00;5041755;28;20041;-77
2023/12/17 03:28:14;;;;;;;1.20;1.20;;;;;;;-3.42;98.00;100869.59;5037902;28;20041;-77
2023/12/17 03:30:39;;;;;;;1.10;1.10;;;;;;;-3.52;97.34;100860.50;5039091;28;20056;-77
2023/12/17 03:33:05;;;;;;;1.20;1.20;;;;;;;-3.35;98.09;100855.59;5040921;28;20061;-78
2023/12/17 03:35:31;;;;;;;1.10;1.10;;;;;;;-3.19;97.69;100858.31;5037024;28;21143;-77
2023/12/17 03:37:56;;;;;;;1.20;1.20;;;;;;;-3.18;97.30;100849.72;5036867;28;20095;-77
2023/12/17 03:40:22;;;;;;;1.10;1.10;;;;;;;-3.08;98.11;100846.50;5040190;28;20044;-77
2023/12/17 03:42:47;;;;;;;1.08;1.08;;;;;;;-3.08;97.79;100834.38;5037436;28;20558;-76
2023/12/17 03:45:13;;;;;;;1.10;1.10;;;;;;;-2.95;97.57;100840.28;5039462;28;20049;-77
2023/12/17 03:47:46;;;;;;;1.10;1.10;;;;;;;-3.15;97.16;100834.44;5037112;28;20033;-77
2023/12/17 03:50:12;;;;;;;1.20;1.20;;;;;;;-3.31;97.43;100844.75;5053786;28;20041;-76
2023/12/17 03:52:37;;;;;;;1.10;1.10;;;;;;;-3.43;97.92;100841.66;5035502;28;20765;-76
2023/12/17 03:55:03;;;;;;;1.15;1.15;;;;;;;-3.29;98.25;100837.13;5040069;28;20052;-76
2023/12/17 03:57:28;;;;;;;1.10;1.10;;;;;;;-3.47;97.78;100846.31;5036614;28;20041;-76
2023/12/17 03:59:53;;;;;;;1.10;1.10;;;;;;;-3.46;98.41;100845.56;5036803;28;20435;-76
2023/12/17 04:02:19;;;;;;;1.20;1.20;;;;;;;-3.40;98.52;100846.31;5039653;28;20044;-76
2023/12/17 04:04:44;;;;;;;1.20;1.20;;;;;;;-3.33;98.74;100847.94;5036859;28;20041;-76
2023/12/17 04:07:10;;;;;;;1.20;1.20;;;;;;;-3.46;98.37;100841.28;5036282;28;20086;-76
2023/12/17 04:09:35;;;;;;;1.10;1.10;;;;;;;-3.71;98.01;100832.25;5037329;28;20033;-76
2023/12/17 04:12:01;;;;;;;1.00;1.00;;;;;;;-3.42;98.75;100832.13;5039639;28;20038;-76
2023/12/17 04:14:26;;;;;;;1.20;1.20;;;;;;;-3.60;98.35;100836.13;5035489;28;20040;-77
2023/12/17 04:16:51;;;;;;;1.20;1.20;;;;;;;-3.40;98.60;100828.97;5050988;28;20102;-76
2023/12/17 04:19:17;;;;;;;1.10;1.10;;;;;;;-3.56;98.62;100825.28;5033879;28;20028;-76
2023/12/17 04:21:42;;;;;;;1.20;1.20;;;;;;;-3.65;98.26;100837.25;5032885;28;20472;-76
2023/12/17 04:24:08;;;;;;;1.10;1.10;;;;;;;-3.69;98.46;100841.19;5038229;28;20462;-77
2023/12/17 04:26:34;;;;;;;1.10;1.10;;;;;;;-3.64;98.77;100841.72;5033236;28;20025;-76
2023/12/17 04:28:59;;;;;;;1.10;1.10;;;;;;;-3.64;98.76;100840.06;5034185;28;20506;-76
2023/12/17 04:31:25;;;;;;;1.10;1.10;;;;;;;-3.73;98.89;100838.03;5034180;28;20128;-76
2023/12/17 04:33:50;;;;;;;1.20;1.20;;;;;;;-3.65;98.92;100832.97;5035256;28;20022;-76
2023/12/17 04:36:16;;;;;;;1.20;1.20;;;;;;;-3.65;99.34;100832.03;5033927;28;20112;-77
2023/12/17 04:38:41;;;;;;;1.00;1.00;;;;;;;-3.72;99.31;100834.69;5033946;28;20041;-76
2023/12/17 04:41:07;;;;;;;1.10;1.10;;;;;;;-3.61;99.33;100829.03;5032439;28;20114;-76
2023/12/17 04:43:33;;;;;;;1.20;1.20;;;;;;;-3.73;99.26;100828.53;5031814;28;20045;-77
2023/12/17 04:45:58;;;;;;;1.20;1.20;;;;;;;-3.76;98.92;100828.16;5033316;28;20116;-76
2023/12/17 04:48:24;;;;;;;1.20;1.20;;;;;;;-3.38;99.25;100830.06;5035904;28;20159;-76
2023/12/17 04:50:49;;;;;;;1.10;1.10;;;;;;;-3.49;99.21;100826.97;5030164;28;20140;-76
2023/12/17 04:53:14;;;;;;;1.13;1.13;;;;;;;-3.60;98.48;100830.91;5030632;28;20042;-76
2023/12/17 04:55:40;;;;;;;1.10;1.10;;;;;;;-3.59;99.05;100838.00;5039228;28;20064;-76
2023/12/17 04:58:05;;;;;;;1.20;1.20;;;;;;;-3.83;98.52;100846.47;5031302;28;20098;-76
2023/12/17 05:00:31;;;;;;;1.20;1.20;;;;;;;-3.90;97.98;100842.16;5035351;28;20055;-76
2023/12/17 05:02:56;;;;;;;1.20;1.20;;;;;;;-3.78;98.37;100839.19;5033625;28;20151;-76
2023/12/17 05:05:23;;;;;;;1.10;1.10;;;;;;;-3.72;98.74;100834.69;5034055;28;20102;-76
2023/12/17 05:07:48;;;;;;;1.10;1.10;;;;;;;-3.72;98.71;100845.13;5032252;28;20116;-76
2023/12/17 05:10:14;;;;;;;1.10;1.10;;;;;;;-3.65;98.42;100834.63;5037175;28;20060;-78
2023/12/17 05:12:39;;;;;;;1.10;1.10;;;;;;;-3.69;99.00;100828.16;5032153;28;20049;-77
2023/12/17 05:15:05;;;;;;;1.20;1.20;;;;;;;-3.58;99.04;100833.72;5037453;28;20044;-77
2023/12/17 05:17:31;;;;;;;1.10;1.10;;;;;;;-3.34;98.88;100826.16;5031145;28;20053;-76
2023/12/17 05:19:56;;;;;;;1.20;1.20;;;;;;;-3.47;98.38;100822.84;5032708;28;20049;-77
2023/12/17 05:22:22;;;;;;;1.20;1.20;;;;;;;-3.57;98.48;100820.84;5032864;28;20535;-77
2023/12/17 05:24:48;;;;;;;1.17;1.17;;;;;;;-3.51;98.67;100807.56;5040028;28;20045;-76
2023/12/17 05:27:14;;;;;;;1.30;1.30;;;;;;;-3.36;98.53;100811.97;5030184;28;20106;-76
2023/12/17 05:29:39;;;;;;;1.10;1.10;;;;;;;-3.27;98.88;100806.88;5030941;28;20037;-76
2023/12/17 05:32:05;;;;;;;1.17;1.17;;;;;;;-3.46;98.27;100798.59;5032707;28;20107;-77
2023/12/17 05:34:30;;;;;;;1.17;1.17;;;;;;;-3.41;97.70;100811.44;5032676;28;20120;-76
2023/12/17 05:36:56;;;;;;;1.20;1.20;;;;;;;-3.39;97.06;100812.56;5033893;28;20376;-76
2023/12/17 05:39:21;;;;;;;1.20;1.20;;;;;;;-3.38;96.66;100819.63;5031150;28;20041;-77
2023/12/17 05:41:47;;;;;;;1.13;1.13;;;;;;;-3.52;97.08;100824.91;5032969;28;20098;-76
2023/12/17 05:44:12;;;;;;;1.20;1.20;;;;;;;-3.42;96.53;100832.13;5033155;28;20034;-76
2023/12/17 05:46:41;;;;;;;1.17;1.17;;;;;;;-3.42;97.36;100830.44;5031506;28;20041;-76
2023/12/17 05:49:06;;;;;;;1.20;1.20;;;;;;;-3.41;97.83;100824.47;5031368;28;20053;-76
2023/12/17 05:51:32;;;;;;;1.20;1.20;;;;;;;-3.56;97.53;100834.81;5040039;28;20540;-76
2023/12/17 05:53:57;;;;;;;1.20;1.20;;;;;;;-3.61;97.72;100829.03;5030924;28;20955;-76
2023/12/17 05:56:22;;;;;;;1.20;1.20;;;;;;;-3.54;98.29;100828.09;5031842;28;20049;-76
2023/12/17 05:58:48;;;;;;;1.20;1.20;;;;;;;-3.65;97.88;100827.75;5034199;28;20438;-76
2023/12/17 06:01:14;;;;;;;1.20;1.20;;;;;;;-3.64;97.93;100821.81;5029947;28;20071;-76
2023/12/17 06:03:39;;;;;;;1.20;1.20;;;;;;;-3.76;97.63;100833.38;5027939;28;20042;-76
2023/12/17 06:06:05;;;;;;;1.20;1.20;;;;;;;-3.77;97.91;100835.81;5035120;28;20456;-76
2023/12/17 06:08:31;;;;;;;1.10;1.10;;;;;;;-3.58;98.02;100833.72;5031112;28;20083;-76
2023/12/17 06:10:56;;;;;;;1.20;1.20;;;;;;;-3.83;97.37;100836.03;5034234;28;20045;-76
2023/12/17 06:13:22;;;;;;;1.17;1.17;;;;;;;-3.73;98.30;100836.38;5031052;28;20048;-76
2023/12/17 06:15:47;;;;;;;1.20;1.20;;;;;;;-3.98;97.71;100832.50;5029865;28;20037;-77
2023/12/17 06:18:15;;;;;;;1.10;1.10;;;;;;;-4.02;97.77;100831.97;5033002;28;20120;-76
2023/12/17 06:20:41;;;;;;;;;;;;;;;-4.02;97.89;100831.97;5034735;28;20442;-76
2023/12/17 06:23:06;;;;;;;1.20;1.20;;;;;;;-4.04;97.86;100833.47;5038867;28;19921;-76
2023/12/17 06:25:32;;;;;;;1.13;1.13;;;;;;;-3.75;98.70;100834.31;5029599;28;20117;-76
2023/12/17 06:27:57;;;;;;;1.10;1.10;;;;;;;-3.98;98.29;100836.78;5035275;28;20498;-76
2023/12/17 06:30:22;;;;;;;1.23;1.23;;;;;;;-3.83;98.69;100836.03;5029996;28;20032;-76
2023/12/17 06:32:48;;;;;;;1.15;1.15;;;;;;;-3.93;98.54;100840.88;5028782;28;20120;-76
2023/12/17 06:35:13;;;;;;;1.20;1.20;;;;;;;-3.82;98.84;100831.75;5034139;28;20088;-76
2023/12/17 06:37:39;;;;;;;1.10;1.10;;;;;;;-3.93;98.39;100836.63;5029748;28;20495;-76
2023/12/17 06:40:05;;;;;;;1.17;1.17;;;;;;;-3.82;98.23;100836.97;5036124;28;20077;-76
2023/12/17 06:42:30;;;;;;;1.20;1.20;;;;;;;-3.77;97.76;100841.03;5031399;28;20407;-76
2023/12/17 06:44:56;;;;;;;1.20;1.20;;;;;;;-3.73;97.46;100835.44;5046484;28;20025;-75
2023/12/17 06:47:21;;;;;;;1.15;1.15;;;;;;;-3.75;97.34;100834.31;5029820;28;20036;-77
2023/12/17 06:49:47;;;;;;;1.10;1.10;;;;;;;-3.85;97.39;100842.72;5029263;28;20040;-77
2023/12/17 06:52:13;;;;;;;1.20;1.20;;;;;;;-3.88;97.25;100837.13;5031258;28;20104;-79
2023/12/17 06:54:38;;;;;;;1.20;1.20;;;;;;;-3.87;96.90;100839.94;5032153;28;20044;-77
2023/12/17 06:57:04;;;;;;;1.20;1.20;;;;;;;-3.79;97.28;100830.41;5030919;28;20041;-77
2023/12/17 06:59:29;;;;;;;1.23;1.23;;;;;;;-3.82;97.24;100843.09;5031011;28;20041;-76
2023/12/17 07:01:54;;;;;;;1.23;1.23;;;;;;;-3.64;97.26;100840.06;5034308;28;20033;-79
2023/12/17 07:04:20;;;;;;;1.20;1.20;;;;;;;-3.72;96.94;100837.28;5031131;28;20045;-77
2023/12/17 07:06:46;;;;;;;1.00;1.00;;;;;;;-3.73;97.31;100840.66;5031084;28;20041;-77
2023/12/17 07:09:12;;;;;;;1.20;1.20;;;;;;;-3.90;97.37;100829.13;5032076;28;20152;-77
2023/12/17 07:11:39;;;;;;;1.20;1.20;;;;;;;-3.90;97.66;100839.56;5031499;28;20064;-78
2023/12/17 07:14:04;;;;;;;1.20;1.20;;;;;;;-3.90;97.31;100831.75;5032268;28;20045;-77
2023/12/17 07:16:30;;;;;;;1.20;1.20;;;;;;;-3.73;97.39;100838.03;5028673;28;20040;-77
2023/12/17 07:18:55;;;;;;;1.10;1.10;;;;;;;-3.72;97.67;100827.78;5031485;28;20497;-77
2023/12/17 07:21:21;;;;;;;1.20;1.20;;;;;;;-3.77;97.34;100830.59;5030382;28;20029;-78
2023/12/17 07:23:46;;;;;;;1.10;1.10;;;;;;;-3.79;96.87;100832.09;5030937;28;20439;-78
2023/12/17 07:26:12;;;;;;;1.20;1.20;;;;;;;-3.49;96.70;100826.97;5032927;28;20056;-76
2023/12/17 07:28:37;;;;;;;1.20;1.20;;;;;;;-3.41;96.69;100826.16;5032421;28;20044;-77
2023/12/17 07:31:03;;;;;;;1.10;1.10;;;;;;;-3.50;96.41;100832.91;5032659;28;20052;-78
2023/12/17 07:33:29;;;;;;;1.20;1.20;;;;;;;-3.60;96.14;100836.13;5032388;28;20041;-77
2023/12/17 07:35:54;;;;;;;1.10;1.10;;;;;;;-3.63;95.82;100833.16;5032164;28;20040;-78
2023/12/17 07:38:20;;;;;;;1.20;1.20;;;;;;;-3.57;96.18;100835.56;5033548;28;20088;-78
2023/12/17 07:40:46;;;;;;;1.20;1.20;;;;;;;-3.38;96.26;100827.44;5028138;28;20146;-77
2023/12/17 07:43:11;;;;;;;1.30;1.30;;;;;;;-3.19;95.19;100827.00;5030844;28;20044;-77
2023/12/17 07:45:37;;;;;;;1.20;1.20;;;;;;;-3.19;95.42;100825.31;5032533;28;20105;-77
2023/12/17 07:48:03;;;;;;;1.20;1.20;;;;;;;-3.24;94.92;100833.38;5032524;28;20123;-77
2023/12/17 07:50:29;;;;;;;1.13;1.13;;;;;;;-3.11;95.41;100821.00;5032586;28;20052;-77
2023/12/17 07:52:55;;;;;;;1.13;1.13;;;;;;;-3.13;95.61;100825.09;5028195;28;20113;-77
2023/12/17 07:55:20;;;;;;;1.13;1.13;;;;;;;-2.99;95.30;100834.50;5048959;28;20090;-78
2023/12/17 07:57:46;;;;;;;1.20;1.20;;;;;;;-3.09;94.81;100832.53;5040433;28;20506;-77
2023/12/17 08:00:12;;;;;;;1.20;1.20;;;;;;;-2.99;95.15;100827.59;5035572;28;20038;-78
2023/12/17 08:02:38;;;;;;;1.20;1.20;;;;;;;-2.99;94.49;100825.00;5049450;28;20514;-77
2023/12/17 08:05:05;;;;;;;1.20;1.20;;;;;;;-2.83;94.46;100825.06;5034427;28;20197;-77
2023/12/17 08:07:31;;;;;;;;;;;;;;;-2.84;94.36;100825.81;5042780;28;20037;-77
2023/12/17 08:09:57;;;;;;;1.10;1.10;;;;;;;-2.62;94.46;100826.63;5036008;28;19928;-77
2023/12/17 08:12:22;;;;;;;1.20;1.20;;;;;;;-2.04;93.67;100827.03;5037007;28;20053;-78
2023/12/17 08:14:48;;;;;;;1.15;1.15;;;;;;;-1.83;93.09;100825.09;5035426;28;20058;-77
2023/12/17 08:17:13;;;;;;;1.20;1.20;;;;;;;-1.84;92.01;100823.25;5033215;28;20675;-77
2023/12/17 08:19:39;;;;;;;1.10;1.10;;;;;;;-1.53;91.86;100821.41;5034074;28;20046;-77
2023/12/17 08:22:04;;;;;;;1.10;1.10;;;;;;;-1.35;91.55;100818.16;5035176;28;20121;-77
2023/12/17 08:24:30;;;;;;;1.10;1.10;;;;;;;-1.05;91.11;100824.91;5035199;28;20052;-77
2023/12/17 08:26:57;;;;;;;1.10;1.10;;;;;;;-0.74;91.41;100820.31;5036052;28;20021;-77
2023/12/17 08:29:24;;;;;;;1.20;1.20;;;;;;;-0.64;90.37;100817.91;5032781;28;20041;-76
2023/12/17 08:31:49;;;;;;;1.20;1.20;;;;;;;-0.33;90.76;100804.66;5032770;28;20048;-75
2023/12/17 08:34:15;;;;;;;1.10;1.10;;;;;;;-0.30;90.06;100804.94;5035155;28;20041;-76
2023/12/17 08:36:43;;;;;;;1.10;1.10;;;;;;;-0.20;90.39;100798.03;5032004;28;20036;-76
2023/12/17 08:39:11;;;;;;;1.00;1.00;;;;;;;-0.08;90.03;100809.81;5033641;28;20072;-77
2023/12/17 08:41:38;;;;;;;1.10;1.10;;;;;;;0.21;89.58;100808.50;5033219;28;20045;-77
2023/12/17 08:44:04;;;;;;;1.10;1.10;;;;;;;0.47;89.80;100798.03;5048575;28;20032;-77
2023/12/17 08:46:29;;;;;;;1.00;1.00;;;;;;;1.06;88.20;100799.59;5036221;28;20450;-77
2023/12/17 08:48:55;;;;;;;1.10;1.10;;;;;;;1.43;86.48;100793.59;5041625;28;20037;-77
2023/12/17 08:51:21;;;;;;;1.10;1.10;;;;;;;1.75;86.79;100791.47;5033601;28;20037;-77
2023/12/17 08:53:47;;;;;;;1.10;1.10;;;;;;;2.07;86.11;100796.28;5033880;28;20056;-77
2023/12/17 08:56:14;;;;;;;1.00;1.00;;;;;;;2.75;86.92;100788.66;5035632;28;20073;-76
2023/12/17 08:58:39;;;;;;;1.00;1.00;;;;;;;3.13;83.43;100786.00;5031975;28;20064;-77
2023/12/17 09:01:05;;;;;;;1.00;1.00;;;;;;;3.45;83.62;100785.34;5032906;28;20068;-78
2023/12/17 09:03:31;;;;;;;1.00;1.00;;;;;;;3.56;82.48;100782.88;5035063;28;20167;-78
2023/12/17 09:05:59;;;;;;;1.00;1.00;;;;;;;3.99;83.28;100781.41;5023578;28;20053;-76
2023/12/17 09:08:24;;;;;;;0.90;0.90;;;;;;;4.29;82.60;100782.22;5030572;28;20336;-76
2023/12/17 09:10:50;;;;;;;0.90;0.90;;;;;;;4.74;84.40;100776.38;5033293;28;20112;-76
2023/12/17 09:13:15;;;;;;;0.90;0.90;;;;;;;5.21;83.99;100776.81;5036639;28;20073;-76
2023/12/17 09:15:41;;;;;;;0.90;0.90;;;;;;;5.45;82.44;100765.59;5035930;28;20037;-75
2023/12/17 09:18:07;;;;;;;0.80;0.80;;;;;;;5.85;84.09;100766.19;5031830;28;20037;-75
2023/12/17 09:20:32;;;;;;;0.70;0.70;;;;;;;5.98;82.63;100769.03;5032743;28;20080;-76
2023/12/17 09:22:59;;;;;;;0.80;0.80;;;;;;;5.48;74.56;100770.22;5033738;28;20092;-76
2023/12/17 09:25:24;;;;;;;0.80;0.80;;;;;;;4.85;77.42;100779.16;5032844;28;20041;-76
2023/12/17 09:27:52;;;;;;;0.80;0.80;;;;;;;5.69;86.15;100777.25;5030307;28;20036;-76
2023/12/17 09:30:18;;;;;;;0.80;0.80;;;;;;;6.43;84.28;100760.25;5030761;28;20103;-76
2023/12/17 09:32:44;;;;;;;0.70;0.70;;;;;;;6.61;80.46;100760.72;5029840;28;20037;-76
2023/12/17 09:35:11;;;;;;;0.70;0.70;;;;;;;6.72;78.20;100769.53;5029724;28;20037;-77
2023/12/17 09:37:37;;;;;;;0.70;0.70;;;;;;;6.63;80.12;100765.34;5032889;28;20037;-76
2023/12/17 09:40:04;;;;;;;0.70;0.70;;;;;;;7.09;80.58;100762.63;5048338;28;20675;-76
2023/12/17 09:42:29;;;;;;;0.70;0.70;;;;;;;7.40;78.69;100764.09;5032945;28;20056;-77
2023/12/17 09:44:55;;;;;;;0.70;0.70;;;;;;;7.89;78.91;100758.81;5032702;28;20156;-76
2023/12/17 09:47:21;;;;;;;0.70;0.70;;;;;;;7.99;78.60;100753.34;5030757;28;20466;-76
2023/12/17 09:49:46;;;;;;;0.70;0.70;;;;;;;8.22;77.87;100749.66;5029761;28;20048;-76
2023/12/17 09:52:15;;;;;;;0.70;0.70;;;;;;;8.71;78.88;100746.03;5031104;28;20041;-77
2023/12/17 09:54:41;;;;;;;0.60;0.60;;;;;;;9.11;77.07;100746.13;5032480;28;20037;-76
2023/12/17 09:57:07;;;;;;;0.60;0.60;;;;;;;9.40;77.40;100748.06;5029579;28;20117;-76
2023/12/17 09:59:33;;;;;;;0.60;0.60;;;;;;;9.82;75.58;100735.69;5037687;28;20857;-77
2023/12/17 10:01:58;;;;;;;0.60;0.60;;;;;;;9.37;75.21;100745.19;5034353;28;20789;-76
2023/12/17 10:04:25;;;;;;;0.50;0.50;;;;;;;10.06;75.69;100733.66;5032443;28;20064;-77
2023/12/17 10:06:51;;;;;;;0.40;0.40;;;;;;;10.67;76.59;100733.91;5033274;28;20539;-77
2023/12/17 10:09:16;;;;;;;0.50;0.50;;;;;;;10.48;77.09;100727.41;5033182;28;20040;-77
2023/12/17 10:11:42;;;;;;;0.40;0.40;;;;;;;10.80;73.74;100715.13;5029611;28;20033;-77
2023/12/17 10:14:25;;;;;;;0.38;0.38;;;;;;;11.26;75.80;100713.44;5023059;28;20033;-79
2023/12/17 10:16:51;;;;;;;0.40;0.40;;;;;;;11.18;72.41;100708.47;5030993;28;20144;-79
2023/12/17 10:19:17;;;;;;;0.40;0.40;;;;;;;11.66;74.27;100704.09;5034793;28;20144;-78
2023/12/17 10:21:43;;;;;;;0.35;0.35;;;;;;;11.15;72.93;100705.59;5029820;28;20032;-79
2023/12/17 10:24:09;;;;;;;0.30;0.30;;;;;;;10.36;61.19;100705.34;5029099;28;20033;-79
2023/12/17 10:26:49;;;;;;;0.40;0.40;;;;;;;11.36;71.52;100692.59;5027041;28;20068;-79
2023/12/17 10:29:16;;;;;;;0.30;0.30;;;;;;;12.04;71.55;100698.22;5027815;28;20050;-79
2023/12/17 10:31:42;;;;;;;0.30;0.30;;;;;;;12.67;69.21;100694.47;5030021;28;20740;-79
2023/12/17 10:34:18;;;;;;;0.30;0.30;;;;;;;13.17;69.34;100687.19;5036785;28;20407;-79
2023/12/17 10:36:46;;;;;;;0.30;0.30;;;;;;;11.53;55.43;100675.72;5031773;28;20286;-80
2023/12/17 10:39:17;;;;;;;0.30;0.30;;;;;;;10.17;70.39;100703.25;5029573;28;20090;-79
2023/12/17 10:41:43;;;;;;;0.30;0.30;;;;;;;11.84;66.24;100681.09;5030640;28;20033;-79
2023/12/17 10:44:12;;;;;;;0.30;0.30;;;;;;;12.44;65.38;100673.59;5030377;28;20048;-79
2023/12/17 10:46:42;;;;;;;0.30;0.30;;;;;;;13.29;66.79;100661.94;5029587;28;20533;-80
2023/12/17 10:49:08;;;;;;;0.30;0.30;;;;;;;13.43;65.10;100665.31;5032511;28;20040;-80
2023/12/17 10:51:37;;;;;;;0.30;0.30;;;;;;;13.17;64.00;100652.34;5031983;28;20048;-80
2023/12/17 10:54:02;;;;;;;0.30;0.30;;;;;;;13.81;61.34;100647.44;5032795;28;20578;-80
2023/12/17 10:56:34;;;;;;;0.30;0.30;;;;;;;13.50;60.79;100656.69;5030410;28;20470;-80
2023/12/17 10:59:03;;;;;;;0.30;0.30;;;;;;;14.20;59.60;100648.38;5029038;28;20041;-79
2023/12/17 11:01:30;;;;;;;0.30;0.30;;;;;;;14.57;57.33;100639.31;5031923;28;20037;-79
2023/12/17 11:03:56;;;;;;;0.30;0.30;;;;;;;14.35;50.26;100640.06;5032356;28;20479;-80
2023/12/17 11:06:22;;;;;;;0.30;0.30;;;;;;;13.72;54.42;100634.53;5029504;28;20033;-80
2023/12/17 11:08:47;;;;;;;0.30;0.30;;;;;;;12.00;51.55;100640.97;5017140;28;20140;-82
2023/12/17 11:11:17;;;;;;;0.40;0.40;;;;;;;11.25;59.17;100635.81;5036739;28;20049;-81
2023/12/17 11:13:43;;;;;;;0.40;0.40;;;;;;;12.82;53.15;100638.09;5027907;28;20553;-80
2023/12/17 11:16:21;;;;;;;0.40;0.40;;;;;;;11.99;52.78;100636.44;5042623;28;20041;-81
2023/12/17 11:18:46;;;;;;;0.32;0.32;;;;;;;11.07;53.68;100635.72;5033280;28;20045;-81